createdAt,value
2019-03-23T00:00:17.686Z,7.73
2019-03-23T00:02:47.163Z,7.17
2019-03-23T00:05:16.507Z,7.47
2019-03-23T00:07:45.795Z,6.50
2019-03-23T00:10:15.068Z,6.93
2019-03-23T00:12:44.364Z,7.53
2019-03-23T00:15:14.011Z,7.10
2019-03-23T00:17:43.314Z,7.93
2019-03-23T00:20:12.720Z,7.77
2019-03-23T00:22:42.019Z,7.57
2019-03-23T00:25:11.290Z,7.70
2019-03-23T00:27:40.604Z,7.87
2019-03-23T00:30:12.634Z,9.43
2019-03-23T00:32:42.001Z,8.50
2019-03-23T00:35:11.515Z,8.30
2019-03-23T00:37:40.819Z,8.10
2019-03-23T00:40:10.535Z,8.77
2019-03-23T00:42:39.838Z,7.43
2019-03-23T00:45:09.954Z,7.93
2019-03-23T00:47:39.320Z,8.40
2019-03-23T00:50:09.534Z,8.57
2019-03-23T00:52:38.843Z,8.17
2019-03-23T00:55:08.651Z,8.10
2019-03-23T00:57:37.926Z,7.90
2019-03-23T01:00:10.226Z,8.70
2019-03-23T01:02:41.699Z,8.00
2019-03-23T01:05:10.790Z,7.70
2019-03-23T01:07:40.203Z,7.60
2019-03-23T01:10:11.240Z,8.27
2019-03-23T01:12:40.586Z,7.77
2019-03-23T01:15:11.627Z,11.00
2019-03-23T01:17:40.976Z,8.77
2019-03-23T01:20:13.084Z,8.23
2019-03-23T01:22:42.358Z,8.27
2019-03-23T01:25:14.606Z,10.30
2019-03-23T01:27:43.873Z,8.27
2019-03-23T01:30:14.301Z,8.47
2019-03-23T01:32:43.591Z,9.40
2019-03-23T01:35:13.549Z,8.07
2019-03-23T01:37:42.825Z,8.73
2019-03-23T01:40:13.817Z,8.83
2019-03-23T01:42:43.118Z,8.50
2019-03-23T01:45:13.325Z,8.83
2019-03-23T01:47:42.683Z,8.40
2019-03-23T01:50:12.494Z,8.50
2019-03-23T01:52:41.793Z,7.77
2019-03-23T01:55:11.942Z,8.00
2019-03-23T01:57:41.242Z,8.07
2019-03-23T02:00:13.590Z,9.60
2019-03-23T02:02:42.878Z,7.70
2019-03-23T02:05:12.179Z,9.10
2019-03-23T02:07:41.492Z,8.63
2019-03-23T02:10:11.914Z,8.87
2019-03-23T02:12:41.233Z,8.97
2019-03-23T02:15:12.040Z,8.47
2019-03-23T02:17:41.357Z,8.53
2019-03-23T02:20:12.465Z,9.43
2019-03-23T02:22:42.034Z,8.43
2019-03-23T02:25:11.534Z,8.70
2019-03-23T02:27:41.117Z,8.70
2019-03-23T02:30:13.777Z,8.73
2019-03-23T02:32:43.067Z,8.43
2019-03-23T02:35:12.474Z,8.57
2019-03-23T02:37:41.780Z,8.90
2019-03-23T02:40:11.383Z,8.53
2019-03-23T02:42:40.721Z,8.87
2019-03-23T02:45:11.630Z,9.20
2019-03-23T02:47:40.922Z,7.67
2019-03-23T02:50:10.751Z,9.47
2019-03-23T02:52:40.043Z,8.63
2019-03-23T02:55:09.951Z,8.70
2019-03-23T02:57:39.390Z,9.23
2019-03-23T03:00:14.071Z,8.43
2019-03-23T03:02:43.405Z,9.87
2019-03-23T03:05:12.759Z,9.30
2019-03-23T03:07:43.549Z,9.50
2019-03-23T03:10:32.599Z,8.97
2019-03-23T03:13:01.901Z,9.43
2019-03-23T03:15:31.166Z,8.87
2019-03-23T03:18:00.465Z,8.73
2019-03-23T03:20:29.730Z,8.67
2019-03-23T03:22:59.022Z,9.77
2019-03-23T03:25:28.295Z,9.77
2019-03-23T03:27:57.596Z,9.60
2019-03-23T03:30:26.861Z,10.30
2019-03-23T03:32:56.150Z,11.23
2019-03-23T03:35:25.429Z,12.33
2019-03-23T03:37:56.791Z,11.17
2019-03-23T03:40:25.705Z,12.20
2019-03-23T03:42:54.990Z,12.60
2019-03-23T03:45:27.933Z,12.23
2019-03-23T03:47:57.233Z,13.03
2019-03-23T03:50:26.513Z,13.80
2019-03-23T03:52:55.817Z,13.83
2019-03-23T03:55:25.098Z,13.30
2019-03-23T03:57:54.394Z,14.23
2019-03-23T04:00:23.667Z,14.00
2019-03-23T04:02:52.973Z,14.77
2019-03-23T04:05:22.245Z,14.10
2019-03-23T04:07:51.547Z,14.87
2019-03-23T04:10:20.815Z,14.07
2019-03-23T04:12:50.114Z,14.40
2019-03-23T04:15:19.399Z,14.20
2019-03-23T04:17:48.691Z,15.43
2019-03-23T04:20:17.961Z,14.43
2019-03-23T04:22:47.254Z,14.70
2019-03-23T04:25:16.537Z,14.23
2019-03-23T04:27:51.430Z,15.03
2019-03-23T04:30:26.090Z,15.27
2019-03-23T04:32:55.402Z,15.30
2019-03-23T04:35:24.674Z,14.47
2019-03-23T04:37:53.950Z,14.67
2019-03-23T04:40:23.250Z,14.53
2019-03-23T04:42:52.533Z,14.80
2019-03-23T04:45:21.844Z,14.53
2019-03-23T04:47:51.229Z,13.83
2019-03-23T04:50:20.501Z,14.77
2019-03-23T04:52:49.782Z,14.40
2019-03-23T04:55:19.077Z,13.43
2019-03-23T04:57:48.359Z,13.67
2019-03-23T05:00:19.094Z,12.47
2019-03-23T05:02:48.414Z,13.20
2019-03-23T05:05:17.746Z,13.07
2019-03-23T05:07:47.030Z,12.30
2019-03-23T05:10:16.394Z,13.47
2019-03-23T05:12:45.669Z,13.10
2019-03-23T05:15:15.035Z,13.77
2019-03-23T05:17:45.319Z,12.63
2019-03-23T05:20:26.125Z,12.00
2019-03-23T05:22:55.474Z,13.03
2019-03-23T05:25:26.601Z,12.53
2019-03-23T05:27:56.147Z,12.27
2019-03-23T05:30:25.441Z,12.13
2019-03-23T05:32:54.715Z,12.50
2019-03-23T05:35:24.014Z,12.60
2019-03-23T05:37:53.368Z,12.67
2019-03-23T05:40:22.657Z,13.20
2019-03-23T05:42:51.929Z,12.60
2019-03-23T05:45:21.234Z,12.63
2019-03-23T05:47:50.517Z,12.63
2019-03-23T05:50:20.782Z,12.60
2019-03-23T05:52:50.065Z,12.87
2019-03-23T05:55:19.371Z,12.10
2019-03-23T05:57:48.642Z,12.70
2019-03-23T06:00:19.149Z,11.60
2019-03-23T06:02:48.433Z,11.43
2019-03-23T06:05:17.809Z,11.50
2019-03-23T06:07:47.091Z,11.33
2019-03-23T06:10:16.623Z,12.73
2019-03-23T06:12:45.902Z,11.93
2019-03-23T06:15:16.246Z,12.80
2019-03-23T06:17:45.547Z,12.07
2019-03-23T06:20:14.911Z,12.07
2019-03-23T06:22:44.205Z,11.90
2019-03-23T06:25:13.497Z,11.87
2019-03-23T06:27:42.796Z,12.97
2019-03-23T06:30:12.328Z,12.27
2019-03-23T06:32:41.626Z,12.87
2019-03-23T06:35:12.534Z,11.13
2019-03-23T06:37:41.821Z,11.73
2019-03-23T06:40:12.001Z,12.77
2019-03-23T06:42:41.276Z,12.77
2019-03-23T06:45:11.325Z,11.77
2019-03-23T06:47:43.806Z,12.47
2019-03-23T06:50:13.221Z,11.67
2019-03-23T06:52:42.592Z,13.37
2019-03-23T06:55:11.945Z,12.87
2019-03-23T06:57:41.237Z,13.40
2019-03-23T07:00:13.551Z,14.10
2019-03-23T07:02:42.834Z,13.03
2019-03-23T07:05:12.980Z,13.17
2019-03-23T07:07:42.272Z,14.27
2019-03-23T07:10:15.217Z,13.07
2019-03-23T07:12:44.503Z,12.90
2019-03-23T07:15:20.006Z,13.63
2019-03-23T07:17:55.667Z,13.20
2019-03-23T07:20:24.974Z,13.77
2019-03-23T07:22:54.983Z,13.60
2019-03-23T07:25:24.323Z,14.40
2019-03-23T07:27:53.605Z,14.83
2019-03-23T07:30:22.905Z,13.23
2019-03-23T07:32:52.185Z,13.17
2019-03-23T07:35:21.503Z,13.93
2019-03-23T07:37:50.802Z,13.13
2019-03-23T07:40:20.138Z,14.47
2019-03-23T07:42:49.441Z,13.93
2019-03-23T07:45:18.792Z,14.27
2019-03-23T07:47:48.089Z,13.83
2019-03-23T07:50:17.397Z,15.23
2019-03-23T07:52:46.691Z,14.13
2019-03-23T07:55:16.516Z,14.27
2019-03-23T07:57:45.889Z,14.73
2019-03-23T08:00:22.260Z,15.03
2019-03-23T08:02:51.552Z,14.77
2019-03-23T08:05:21.205Z,15.93
2019-03-23T08:07:50.505Z,15.70
2019-03-23T08:10:22.873Z,15.40
2019-03-23T08:12:52.182Z,15.97
2019-03-23T08:15:21.502Z,15.57
2019-03-23T08:17:50.784Z,15.33
2019-03-23T08:20:20.070Z,15.57
2019-03-23T08:22:49.433Z,15.63
2019-03-23T08:25:18.718Z,15.63
2019-03-23T08:27:48.097Z,17.07
2019-03-23T08:30:17.579Z,16.10
2019-03-23T08:32:46.870Z,16.53
2019-03-23T08:35:16.153Z,16.53
2019-03-23T08:37:45.473Z,16.07
2019-03-23T08:40:14.762Z,15.93
2019-03-23T08:42:44.052Z,16.90
2019-03-23T08:45:13.497Z,16.67
2019-03-23T08:47:42.814Z,14.87
2019-03-23T08:50:12.170Z,16.13
2019-03-23T08:52:41.468Z,16.80
2019-03-23T08:55:10.762Z,16.60
2019-03-23T08:57:41.407Z,17.80
2019-03-23T09:00:11.425Z,17.97
2019-03-23T09:02:41.263Z,17.13
2019-03-23T09:05:10.654Z,17.23
2019-03-23T09:07:40.025Z,17.13
2019-03-23T09:10:09.762Z,17.93
2019-03-23T09:12:39.042Z,17.83
2019-03-23T09:15:09.481Z,17.90
2019-03-23T09:17:38.765Z,18.83
2019-03-23T09:20:13.033Z,19.73
2019-03-23T09:22:42.312Z,18.83
2019-03-23T09:25:11.690Z,19.40
2019-03-23T09:27:40.973Z,19.37
2019-03-23T09:30:12.625Z,20.47
2019-03-23T09:32:41.910Z,20.07
2019-03-23T09:35:11.285Z,18.93
2019-03-23T09:37:40.572Z,19.60
2019-03-23T09:40:11.399Z,19.70
2019-03-23T09:42:40.879Z,19.80
2019-03-23T09:45:10.359Z,20.30
2019-03-23T09:47:39.742Z,21.77
2019-03-23T09:50:10.524Z,19.33
2019-03-23T09:52:39.925Z,19.37
2019-03-23T09:55:09.369Z,20.10
2019-03-23T09:57:38.647Z,19.83
2019-03-23T10:00:10.302Z,19.53
2019-03-23T10:02:39.653Z,20.03
2019-03-23T10:05:09.078Z,19.70
2019-03-23T10:07:38.382Z,19.77
2019-03-23T10:10:08.121Z,19.33
2019-03-23T10:12:37.412Z,20.27
2019-03-23T10:15:09.641Z,19.37
2019-03-23T10:17:38.927Z,19.97
2019-03-23T10:20:08.477Z,21.67
2019-03-23T10:22:37.769Z,20.83
2019-03-23T10:25:07.134Z,20.83
2019-03-23T10:27:36.501Z,20.37
2019-03-23T10:30:08.197Z,20.40
2019-03-23T10:32:38.510Z,19.80
2019-03-23T10:35:08.891Z,21.73
2019-03-23T10:37:38.190Z,21.33
2019-03-23T10:40:09.124Z,22.67
2019-03-23T10:42:38.414Z,21.43
2019-03-23T10:45:09.386Z,19.97
2019-03-23T10:47:38.888Z,22.13
2019-03-23T10:50:08.282Z,20.93
2019-03-23T10:52:37.590Z,21.53
2019-03-23T10:55:07.005Z,21.27
2019-03-23T10:57:36.382Z,21.67
2019-03-23T11:00:08.161Z,24.97
2019-03-23T11:02:39.088Z,21.53
2019-03-23T11:05:08.906Z,22.53
2019-03-23T11:07:38.218Z,23.20
2019-03-23T11:10:12.423Z,22.00
2019-03-23T11:12:41.797Z,21.73
2019-03-23T11:15:11.309Z,22.97
2019-03-23T11:17:40.633Z,22.23
2019-03-23T11:20:12.151Z,24.03
2019-03-23T11:22:41.454Z,23.37
2019-03-23T11:25:12.349Z,22.87
2019-03-23T11:27:41.718Z,22.20
2019-03-23T11:30:12.965Z,22.50
2019-03-23T11:32:42.326Z,23.90
2019-03-23T11:35:11.895Z,22.83
2019-03-23T11:37:41.486Z,24.17
2019-03-23T11:40:11.676Z,23.00
2019-03-23T11:42:49.358Z,23.07
2019-03-23T11:45:12.254Z,24.63
2019-03-23T11:47:41.600Z,23.97
2019-03-23T11:50:11.446Z,24.23
2019-03-23T11:52:41.701Z,24.13
2019-03-23T11:55:11.645Z,23.37
2019-03-23T11:57:40.931Z,23.30
2019-03-23T12:00:15.087Z,23.97
2019-03-23T12:02:44.463Z,25.70
2019-03-23T12:05:14.209Z,24.80
2019-03-23T12:07:43.510Z,23.60
2019-03-23T12:10:13.531Z,24.80
2019-03-23T12:12:42.837Z,24.43
2019-03-23T12:15:19.320Z,25.67
2019-03-23T12:17:48.615Z,25.90
2019-03-23T12:20:17.900Z,28.30
2019-03-23T12:22:47.200Z,25.80
2019-03-23T12:25:16.485Z,27.00
2019-03-23T12:27:45.859Z,26.77
2019-03-23T12:30:16.704Z,26.20
2019-03-23T12:32:45.993Z,26.53
2019-03-23T12:35:15.274Z,26.77
2019-03-23T12:37:44.574Z,27.67
2019-03-23T12:40:14.927Z,27.40
2019-03-23T12:42:44.221Z,25.80
2019-03-23T12:45:13.642Z,24.60
2019-03-23T12:47:42.950Z,26.03
2019-03-23T12:50:12.402Z,25.83
2019-03-23T12:52:41.701Z,26.37
2019-03-23T12:55:11.102Z,25.37
2019-03-23T12:57:40.406Z,26.30
2019-03-23T13:00:15.731Z,26.37
2019-03-23T13:02:45.033Z,26.83
2019-03-23T13:05:14.309Z,26.83
2019-03-23T13:07:43.619Z,27.97
2019-03-23T13:10:13.940Z,26.47
2019-03-23T13:12:43.306Z,26.77
2019-03-23T13:15:14.225Z,27.87
2019-03-23T13:17:43.530Z,28.17
2019-03-23T13:20:13.090Z,27.77
2019-03-23T13:22:43.402Z,27.60
2019-03-23T13:25:12.923Z,28.40
2019-03-23T13:27:42.372Z,28.13
2019-03-23T13:30:15.876Z,26.00
2019-03-23T13:32:45.178Z,29.50
2019-03-23T13:35:14.538Z,28.33
2019-03-23T13:37:43.847Z,28.13
2019-03-23T13:40:13.461Z,30.07
2019-03-23T13:42:42.771Z,29.10
2019-03-23T13:45:12.321Z,29.73
2019-03-23T13:47:41.687Z,30.53
2019-03-23T13:50:12.413Z,28.20
2019-03-23T13:52:41.721Z,29.87
2019-03-23T13:55:25.207Z,32.57
2019-03-23T13:57:54.545Z,31.43
2019-03-23T14:00:23.830Z,30.80
2019-03-23T14:02:53.131Z,30.97
2019-03-23T14:05:22.412Z,30.20
2019-03-23T14:07:51.710Z,32.80
2019-03-23T14:10:20.985Z,34.70
2019-03-23T14:12:50.290Z,33.00
2019-03-23T14:15:19.581Z,32.03
2019-03-23T14:17:48.953Z,33.10
2019-03-23T14:20:19.192Z,32.97
2019-03-23T14:22:48.493Z,32.33
2019-03-23T14:25:17.777Z,34.03
2019-03-23T14:27:48.158Z,32.27
2019-03-23T14:30:17.446Z,33.13
2019-03-23T14:32:46.750Z,33.07
2019-03-23T14:35:16.055Z,32.27
2019-03-23T14:37:45.339Z,34.07
2019-03-23T14:40:14.647Z,33.77
2019-03-23T14:42:43.927Z,33.03
2019-03-23T14:45:13.294Z,33.73
2019-03-23T14:47:42.578Z,33.27
2019-03-23T14:50:12.119Z,33.60
2019-03-23T14:52:41.401Z,35.03
2019-03-23T14:55:10.762Z,34.53
2019-03-23T14:57:40.578Z,33.67
2019-03-23T15:00:10.365Z,34.00
2019-03-23T15:02:39.643Z,34.20
2019-03-23T15:05:09.017Z,34.93
2019-03-23T15:07:38.546Z,34.27
2019-03-23T15:10:10.198Z,34.57
2019-03-23T15:12:40.455Z,36.43
2019-03-23T15:15:10.210Z,35.17
2019-03-23T15:17:48.470Z,34.67
2019-03-23T15:20:10.581Z,36.53
2019-03-23T15:22:39.857Z,35.03
2019-03-23T15:25:09.504Z,34.53
2019-03-23T15:27:38.786Z,33.60
2019-03-23T15:30:08.429Z,37.03
2019-03-23T15:32:37.718Z,37.47
2019-03-23T15:35:07.293Z,35.30
2019-03-23T15:37:36.586Z,36.10
2019-03-23T15:40:07.321Z,35.43
2019-03-23T15:42:36.597Z,35.73
2019-03-23T15:45:08.009Z,35.43
2019-03-23T15:47:37.289Z,34.47
2019-03-23T15:50:07.441Z,36.17
2019-03-23T15:52:36.715Z,35.63
2019-03-23T15:55:06.965Z,37.37
2019-03-23T15:57:36.413Z,36.93
2019-03-23T16:00:08.171Z,37.50
2019-03-23T16:02:37.449Z,38.20
2019-03-23T16:05:08.291Z,40.37
2019-03-23T16:07:37.883Z,36.43
2019-03-23T16:10:07.918Z,39.13
2019-03-23T16:12:38.467Z,39.83
2019-03-23T16:15:12.327Z,40.13
2019-03-23T16:17:41.608Z,39.90
2019-03-23T16:20:11.763Z,38.33
2019-03-23T16:22:41.119Z,38.23
2019-03-23T16:25:10.851Z,38.83
2019-03-23T16:27:40.157Z,36.83
2019-03-23T16:30:11.262Z,39.77
2019-03-23T16:32:40.549Z,39.33
2019-03-23T16:35:10.301Z,37.13
2019-03-23T16:37:39.597Z,37.73
2019-03-23T16:40:10.136Z,40.33
2019-03-23T16:42:45.191Z,38.23
2019-03-23T16:45:11.795Z,40.10
2019-03-23T16:47:41.081Z,40.70
2019-03-23T16:50:10.719Z,40.30
2019-03-23T16:52:40.012Z,39.63
2019-03-23T16:55:09.929Z,38.97
2019-03-23T16:57:39.364Z,40.27
2019-03-23T17:00:11.649Z,37.97
2019-03-23T17:02:40.956Z,40.17
2019-03-23T17:05:11.373Z,41.33
2019-03-23T17:07:40.677Z,38.40
2019-03-23T17:10:10.223Z,39.30
2019-03-23T17:12:39.522Z,39.93
2019-03-23T17:15:09.240Z,38.03
2019-03-23T17:17:38.545Z,38.47
2019-03-23T17:20:08.065Z,38.80
2019-03-23T17:22:37.373Z,38.93
2019-03-23T17:25:07.094Z,38.17
2019-03-23T17:27:37.473Z,40.50
2019-03-23T17:30:07.793Z,39.47
2019-03-23T17:32:38.902Z,39.53
2019-03-23T17:35:08.728Z,37.23
2019-03-23T17:37:38.023Z,38.83
2019-03-23T17:40:08.353Z,38.57
2019-03-23T17:42:37.803Z,39.53
2019-03-23T17:45:09.952Z,38.40
2019-03-23T17:47:40.412Z,37.07
2019-03-23T17:50:10.845Z,38.47
2019-03-23T17:52:43.981Z,40.10
2019-03-23T17:55:13.357Z,36.47
2019-03-23T17:57:42.981Z,39.33
2019-03-23T18:00:12.854Z,41.03
2019-03-23T18:02:42.459Z,39.33
2019-03-23T18:05:12.298Z,38.77
2019-03-23T18:07:41.773Z,39.63
2019-03-23T18:10:11.734Z,40.93
2019-03-23T18:12:41.261Z,38.87
2019-03-23T18:15:11.087Z,40.30
2019-03-23T18:17:40.535Z,38.83
2019-03-23T18:20:10.402Z,38.73
2019-03-23T18:22:39.933Z,39.73
2019-03-23T18:25:09.587Z,41.93
2019-03-23T18:27:39.077Z,39.97
2019-03-23T18:30:23.029Z,39.40
2019-03-23T18:32:52.333Z,42.33
2019-03-23T18:35:21.609Z,43.53
2019-03-23T18:37:50.902Z,42.17
2019-03-23T18:40:20.781Z,42.73
2019-03-23T18:42:50.093Z,43.63
2019-03-23T18:45:19.377Z,42.57
2019-03-23T18:47:48.708Z,42.13
2019-03-23T18:50:17.981Z,45.67
2019-03-23T18:52:47.331Z,42.40
2019-03-23T18:55:16.601Z,42.30
2019-03-23T18:57:45.901Z,41.07
2019-03-23T19:00:18.289Z,39.83
2019-03-23T19:02:47.594Z,40.00
2019-03-23T19:05:16.878Z,41.27
2019-03-23T19:07:46.182Z,39.60
2019-03-23T19:10:15.617Z,40.03
2019-03-23T19:12:44.928Z,40.73
2019-03-23T19:15:14.278Z,38.87
2019-03-23T19:17:43.652Z,38.63
2019-03-23T19:20:12.938Z,41.50
2019-03-23T19:22:42.237Z,38.37
2019-03-23T19:25:17.202Z,40.20
2019-03-23T19:27:43.556Z,38.53
2019-03-23T19:30:13.376Z,40.03
2019-03-23T19:32:42.680Z,37.77
2019-03-23T19:35:12.429Z,37.03
2019-03-23T19:37:41.738Z,33.33
2019-03-23T19:40:12.159Z,30.67
2019-03-23T19:42:41.459Z,31.80
2019-03-23T19:45:10.878Z,31.13
2019-03-23T19:47:40.184Z,30.03
2019-03-23T19:50:09.724Z,29.43
2019-03-23T19:52:39.025Z,27.97
2019-03-23T19:55:08.952Z,27.97
2019-03-23T19:57:40.103Z,28.53
2019-03-23T20:00:11.438Z,28.93
2019-03-23T20:02:40.997Z,32.10
2019-03-23T20:05:15.035Z,27.80
2019-03-23T20:07:44.429Z,26.93
2019-03-23T20:10:14.427Z,27.90
2019-03-23T20:12:43.830Z,26.57
2019-03-23T20:15:13.587Z,28.50
2019-03-23T20:17:43.179Z,27.83
2019-03-23T20:20:13.873Z,26.33
2019-03-23T20:22:44.998Z,28.57
2019-03-23T20:27:51.026Z,27.70
2019-03-23T20:30:20.903Z,26.47
2019-03-23T20:32:50.578Z,25.23
2019-03-23T20:35:20.214Z,24.67
2019-03-23T20:37:49.498Z,24.83
2019-03-23T20:40:18.793Z,26.03
2019-03-23T20:42:48.074Z,26.17
2019-03-23T20:45:20.511Z,25.03
2019-03-23T20:47:49.814Z,26.10
2019-03-23T20:50:19.126Z,25.70
2019-03-23T20:52:48.550Z,26.80
2019-03-23T20:55:26.291Z,24.73
2019-03-23T20:57:55.585Z,25.40
2019-03-23T21:00:25.509Z,25.20
2019-03-23T21:02:54.862Z,25.07
2019-03-23T21:05:33.156Z,25.10
2019-03-23T21:07:55.385Z,25.53
2019-03-23T21:10:24.894Z,25.70
2019-03-23T21:12:54.217Z,25.03
2019-03-23T21:15:23.629Z,24.47
2019-03-23T21:17:53.192Z,25.67
2019-03-23T21:20:23.483Z,23.67
2019-03-23T21:22:52.812Z,25.00
2019-03-23T21:25:22.140Z,25.67
2019-03-23T21:27:51.655Z,24.97
2019-03-23T21:30:21.569Z,25.77
2019-03-23T21:32:50.845Z,24.77
2019-03-23T21:35:20.289Z,24.63
2019-03-23T21:37:49.688Z,24.10
2019-03-23T21:40:19.479Z,24.83
2019-03-23T21:42:49.718Z,24.57
2019-03-23T21:45:19.139Z,25.23
2019-03-23T21:47:48.544Z,25.47
2019-03-23T21:50:17.857Z,24.57
2019-03-23T21:52:47.530Z,26.07
2019-03-23T21:55:16.907Z,24.00
2019-03-23T21:57:46.180Z,25.10
2019-03-23T22:00:18.618Z,25.83
2019-03-23T22:02:48.109Z,25.83
2019-03-23T22:05:17.515Z,24.97
2019-03-23T22:07:46.881Z,25.47
2019-03-23T22:10:16.273Z,26.00
2019-03-23T22:12:45.589Z,26.10
2019-03-23T22:15:15.373Z,25.33
2019-03-23T22:17:44.687Z,26.27
2019-03-23T22:20:14.107Z,26.60
2019-03-23T22:22:43.471Z,27.47
2019-03-23T22:25:14.008Z,25.40
2019-03-23T22:27:43.426Z,26.33
2019-03-23T22:30:14.449Z,27.53
2019-03-23T22:32:43.824Z,26.67
2019-03-23T22:35:13.314Z,26.77
2019-03-23T22:37:42.734Z,28.10
2019-03-23T22:40:13.085Z,27.30
2019-03-23T22:42:42.430Z,25.77
2019-03-23T22:45:15.034Z,27.17
2019-03-23T22:47:44.296Z,25.47
2019-03-23T22:50:13.917Z,24.93
2019-03-23T22:52:43.245Z,26.90
2019-03-23T22:55:12.525Z,27.63
2019-03-23T22:57:41.933Z,28.80
2019-03-23T23:00:15.834Z,26.97
2019-03-23T23:02:47.027Z,25.80
2019-03-23T23:05:16.473Z,27.63
2019-03-23T23:07:46.225Z,26.70
2019-03-23T23:10:17.305Z,24.90
2019-03-23T23:12:46.929Z,25.43
2019-03-23T23:15:19.181Z,25.93
2019-03-23T23:17:50.227Z,25.47
2019-03-23T23:20:19.998Z,25.03
2019-03-23T23:22:49.489Z,27.30
2019-03-23T23:25:20.563Z,26.20
2019-03-23T23:27:50.124Z,25.10
2019-03-23T23:30:21.413Z,25.57
2019-03-23T23:32:50.962Z,27.30
2019-03-23T23:35:22.959Z,26.13
2019-03-23T23:37:52.230Z,26.43
2019-03-23T23:40:21.509Z,26.73
2019-03-23T23:42:50.838Z,27.43
2019-03-23T23:45:20.119Z,25.87
2019-03-23T23:47:49.422Z,25.83
2019-03-23T23:50:18.697Z,25.70
2019-03-23T23:52:48.001Z,27.33
2019-03-23T23:55:17.276Z,26.13
2019-03-23T23:57:46.581Z,26.57
